Lentvaris, Lithuania
Current Conditions -  °F | °C
As of 9:20 PM on Sunday 21 Dec 2014 (Local Time) from EYVI Reporting Station
Broken Clouds Broken Clouds  
Wind Chill: 25°   Ceiling: 2300
Heat Index: 32°   Visibility: 6mi
Dew Point: 32°   Wind: 8mph
Humidity: 100%   Direction: 270°W
Pressure: 29.77"   Gusts: NA
Location:  54.65°N, 25.05°E
Report Text: EYVI 211820Z 27007KT 240V030 9999 SCT012CB BKN023 00/M00 Q1008 R02/5/0393 NOSIG
Loading
Personal Weather Stations






























Interactive Weather Map New forecast layout! Learn more

10-Day Weather Forecast

Advertisements
Track Severe Weather on mobile